sensor_id;sensor_type;location;lat;lon;timestamp;pressure;altitude;pressure_sealevel;temperature;humidity
46722;BME280;32455;43.430;23.136;2023-03-21T00:01:42;98065.34;;;10.07;76.35
46722;BME280;32455;43.430;23.136;2023-03-21T00:04:27;98069.69;;;9.83;77.00
46722;BME280;32455;43.430;23.136;2023-03-21T00:07:13;98064.47;;;9.88;74.73
46722;BME280;32455;43.430;23.136;2023-03-21T00:09:58;98062.47;;;9.84;76.46
46722;BME280;32455;43.430;23.136;2023-03-21T00:12:43;98056.50;;;9.82;77.44
46722;BME280;32455;43.430;23.136;2023-03-21T00:15:29;98057.72;;;9.86;77.33
46722;BME280;32455;43.430;23.136;2023-03-21T00:18:15;98051.81;;;9.77;77.51
46722;BME280;32455;43.430;23.136;2023-03-21T00:21:04;98053.28;;;9.73;77.88
46722;BME280;32455;43.430;23.136;2023-03-21T00:23:50;98042.66;;;9.60;77.69
46722;BME280;32455;43.430;23.136;2023-03-21T00:26:35;98044.75;;;9.58;78.01
46722;BME280;32455;43.430;23.136;2023-03-21T00:29:22;98039.66;;;9.93;77.91
46722;BME280;32455;43.430;23.136;2023-03-21T00:32:07;98041.41;;;9.62;78.04
46722;BME280;32455;43.430;23.136;2023-03-21T00:34:52;98053.16;;;9.86;76.44
46722;BME280;32455;43.430;23.136;2023-03-21T00:37:38;98048.78;;;9.67;77.55
46722;BME280;32455;43.430;23.136;2023-03-21T00:40:23;98043.13;;;9.50;76.21
46722;BME280;32455;43.430;23.136;2023-03-21T00:43:09;98056.91;;;9.85;75.23
46722;BME280;32455;43.430;23.136;2023-03-21T00:45:58;98051.09;;;9.38;77.25
46722;BME280;32455;43.430;23.136;2023-03-21T00:48:43;98049.97;;;9.46;77.34
46722;BME280;32455;43.430;23.136;2023-03-21T00:51:29;98051.03;;;9.45;74.86
46722;BME280;32455;43.430;23.136;2023-03-21T00:54:14;98056.25;;;9.65;76.44
46722;BME280;32455;43.430;23.136;2023-03-21T00:57:00;98052.28;;;9.17;78.61
46722;BME280;32455;43.430;23.136;2023-03-21T00:59:47;98058.75;;;9.35;78.12
46722;BME280;32455;43.430;23.136;2023-03-21T01:02:32;98038.34;;;9.34;77.55
46722;BME280;32455;43.430;23.136;2023-03-21T01:05:18;98045.41;;;9.53;74.09
46722;BME280;32455;43.430;23.136;2023-03-21T01:08:24;98049.94;;;9.52;75.28
46722;BME280;32455;43.430;23.136;2023-03-21T01:11:14;98057.06;;;9.65;76.04
46722;BME280;32455;43.430;23.136;2023-03-21T01:14:00;98044.47;;;9.66;75.34
46722;BME280;32455;43.430;23.136;2023-03-21T01:16:47;98037.84;;;10.12;71.66
46722;BME280;32455;43.430;23.136;2023-03-21T01:19:33;98051.28;;;10.67;68.03
46722;BME280;32455;43.430;23.136;2023-03-21T01:22:19;98046.94;;;10.66;68.87
46722;BME280;32455;43.430;23.136;2023-03-21T01:25:05;98051.88;;;10.69;67.45
46722;BME280;32455;43.430;23.136;2023-03-21T01:27:50;98042.63;;;10.46;69.71
46722;BME280;32455;43.430;23.136;2023-03-21T01:30:36;98037.03;;;10.66;68.49
46722;BME280;32455;43.430;23.136;2023-03-21T01:33:22;98041.50;;;10.36;72.18
46722;BME280;32455;43.430;23.136;2023-03-21T01:36:13;98037.16;;;10.53;69.31
46722;BME280;32455;43.430;23.136;2023-03-21T01:38:59;98037.34;;;10.58;69.22
46722;BME280;32455;43.430;23.136;2023-03-21T01:41:45;98034.09;;;10.68;69.11
46722;BME280;32455;43.430;23.136;2023-03-21T01:45:00;98021.56;;;10.62;68.95
46722;BME280;32455;43.430;23.136;2023-03-21T01:47:47;98028.53;;;10.51;71.19
46722;BME280;32455;43.430;23.136;2023-03-21T01:50:34;98022.19;;;10.27;72.24
46722;BME280;32455;43.430;23.136;2023-03-21T01:53:23;98015.25;;;10.19;73.93
46722;BME280;32455;43.430;23.136;2023-03-21T01:56:27;98020.69;;;10.13;76.11
46722;BME280;32455;43.430;23.136;2023-03-21T01:59:19;98019.91;;;10.06;75.23
46722;BME280;32455;43.430;23.136;2023-03-21T02:02:11;98022.00;;;10.22;73.89
46722;BME280;32455;43.430;23.136;2023-03-21T02:05:00;98015.84;;;10.03;75.24
46722;BME280;32455;43.430;23.136;2023-03-21T02:07:49;98008.59;;;10.03;74.97
46722;BME280;32455;43.430;23.136;2023-03-21T02:10:36;98008.06;;;10.13;73.96
46722;BME280;32455;43.430;23.136;2023-03-21T02:13:22;98003.66;;;10.00;74.10
46722;BME280;32455;43.430;23.136;2023-03-21T02:16:36;98011.03;;;10.05;76.36
46722;BME280;32455;43.430;23.136;2023-03-21T02:28:34;97995.91;;;9.92;74.87
46722;BME280;32455;43.430;23.136;2023-03-21T02:31:45;98015.44;;;9.99;76.24
46722;BME280;32455;43.430;23.136;2023-03-21T02:38:13;98023.50;;;9.81;76.57
46722;BME280;32455;43.430;23.136;2023-03-21T02:41:34;98012.91;;;9.86;73.81
46722;BME280;32455;43.430;23.136;2023-03-21T02:50:15;98009.22;;;9.81;75.44
46722;BME280;32455;43.430;23.136;2023-03-21T02:53:06;98008.13;;;9.88;73.41
46722;BME280;32455;43.430;23.136;2023-03-21T02:55:53;97996.72;;;9.74;75.19
46722;BME280;32455;43.430;23.136;2023-03-21T02:58:41;98012.16;;;9.97;73.01
46722;BME280;32455;43.430;23.136;2023-03-21T03:01:29;98001.41;;;9.97;74.43
46722;BME280;32455;43.430;23.136;2023-03-21T03:04:19;98005.69;;;9.87;75.81
46722;BME280;32455;43.430;23.136;2023-03-21T03:07:27;97999.88;;;9.90;74.95
46722;BME280;32455;43.430;23.136;2023-03-21T03:10:28;97996.94;;;9.91;74.87
46722;BME280;32455;43.430;23.136;2023-03-21T03:20:04;97994.22;;;10.16;72.40
46722;BME280;32455;43.430;23.136;2023-03-21T03:26:15;97976.28;;;9.92;74.61
46722;BME280;32455;43.430;23.136;2023-03-21T03:29:08;97971.75;;;9.92;74.32
46722;BME280;32455;43.430;23.136;2023-03-21T03:34:49;97983.38;;;9.86;75.19
46722;BME280;32455;43.430;23.136;2023-03-21T03:37:40;97984.84;;;9.64;76.48
46722;BME280;32455;43.430;23.136;2023-03-21T03:40:30;97969.97;;;9.68;76.61
46722;BME280;32455;43.430;23.136;2023-03-21T03:43:22;97988.09;;;9.47;77.98
46722;BME280;32455;43.430;23.136;2023-03-21T03:49:25;97984.97;;;9.00;80.09
46722;BME280;32455;43.430;23.136;2023-03-21T03:52:20;97997.34;;;8.95;81.58
46722;BME280;32455;43.430;23.136;2023-03-21T03:55:06;97986.75;;;9.07;80.54
46722;BME280;32455;43.430;23.136;2023-03-21T03:57:55;97989.84;;;8.78;81.60
46722;BME280;32455;43.430;23.136;2023-03-21T04:00:40;97988.75;;;8.55;83.06
46722;BME280;32455;43.430;23.136;2023-03-21T04:03:27;97989.97;;;8.52;83.10
46722;BME280;32455;43.430;23.136;2023-03-21T04:06:11;97985.47;;;8.52;82.87
46722;BME280;32455;43.430;23.136;2023-03-21T04:08:57;97989.78;;;8.53;82.87
46722;BME280;32455;43.430;23.136;2023-03-21T04:11:43;97996.88;;;8.21;84.47
46722;BME280;32455;43.430;23.136;2023-03-21T04:14:28;97986.56;;;8.25;83.83
46722;BME280;32455;43.430;23.136;2023-03-21T04:17:13;97980.59;;;8.29;82.53
46722;BME280;32455;43.430;23.136;2023-03-21T04:20:00;97990.25;;;8.44;82.18
46722;BME280;32455;43.430;23.136;2023-03-21T04:22:46;98000.41;;;8.09;84.11
46722;BME280;32455;43.430;23.136;2023-03-21T04:25:34;98001.25;;;8.09;85.29
46722;BME280;32455;43.430;23.136;2023-03-21T04:28:19;97996.78;;;7.90;85.99
46722;BME280;32455;43.430;23.136;2023-03-21T04:31:07;97991.03;;;7.86;86.20
46722;BME280;32455;43.430;23.136;2023-03-21T04:33:57;98001.91;;;7.91;86.68
46722;BME280;32455;43.430;23.136;2023-03-21T04:36:44;97998.81;;;8.01;86.25
46722;BME280;32455;43.430;23.136;2023-03-21T04:39:30;97980.88;;;8.08;86.39
46722;BME280;32455;43.430;23.136;2023-03-21T04:42:16;97989.88;;;8.20;86.12
46722;BME280;32455;43.430;23.136;2023-03-21T04:45:03;97995.47;;;8.19;87.14
46722;BME280;32455;43.430;23.136;2023-03-21T04:47:48;97994.19;;;8.21;85.99
46722;BME280;32455;43.430;23.136;2023-03-21T04:50:34;97997.69;;;8.28;86.19
46722;BME280;32455;43.430;23.136;2023-03-21T04:53:19;98010.81;;;8.43;85.15
46722;BME280;32455;43.430;23.136;2023-03-21T04:56:05;97988.03;;;8.27;85.64
46722;BME280;32455;43.430;23.136;2023-03-21T04:58:50;98009.28;;;8.67;85.01
46722;BME280;32455;43.430;23.136;2023-03-21T05:01:36;98006.59;;;8.67;84.95
46722;BME280;32455;43.430;23.136;2023-03-21T05:04:21;97995.00;;;8.73;85.88
46722;BME280;32455;43.430;23.136;2023-03-21T05:07:07;98014.53;;;8.87;86.29
46722;BME280;32455;43.430;23.136;2023-03-21T05:09:52;98009.38;;;8.86;86.24
46722;BME280;32455;43.430;23.136;2023-03-21T05:12:37;98011.22;;;8.85;87.79
46722;BME280;32455;43.430;23.136;2023-03-21T05:15:22;97996.50;;;9.01;88.33
46722;BME280;32455;43.430;23.136;2023-03-21T05:18:07;98011.66;;;9.14;89.38
46722;BME280;32455;43.430;23.136;2023-03-21T05:20:56;97987.28;;;9.22;89.99
46722;BME280;32455;43.430;23.136;2023-03-21T05:23:42;98015.78;;;9.66;88.22
46722;BME280;32455;43.430;23.136;2023-03-21T05:26:28;97999.88;;;9.90;86.29
46722;BME280;32455;43.430;23.136;2023-03-21T05:29:15;98009.19;;;10.24;86.06
46722;BME280;32455;43.430;23.136;2023-03-21T05:32:01;98005.97;;;10.52;83.52
46722;BME280;32455;43.430;23.136;2023-03-21T05:34:46;98000.44;;;10.65;84.55
46722;BME280;32455;43.430;23.136;2023-03-21T05:37:31;97999.72;;;10.88;84.04
46722;BME280;32455;43.430;23.136;2023-03-21T05:40:16;98000.47;;;11.07;83.83
46722;BME280;32455;43.430;23.136;2023-03-21T05:43:01;98020.66;;;11.40;78.12
46722;BME280;32455;43.430;23.136;2023-03-21T05:45:46;98014.38;;;11.69;73.91
46722;BME280;32455;43.430;23.136;2023-03-21T05:48:32;98005.47;;;11.69;72.47
46722;BME280;32455;43.430;23.136;2023-03-21T05:51:18;98005.97;;;11.89;69.56
46722;BME280;32455;43.430;23.136;2023-03-21T05:54:04;98009.34;;;12.08;67.76
46722;BME280;32455;43.430;23.136;2023-03-21T05:56:50;98010.63;;;12.06;69.58
46722;BME280;32455;43.430;23.136;2023-03-21T05:59:36;98008.03;;;12.22;68.04
46722;BME280;32455;43.430;23.136;2023-03-21T06:02:21;98007.56;;;12.25;67.34
46722;BME280;32455;43.430;23.136;2023-03-21T06:05:07;98005.09;;;12.24;68.02
46722;BME280;32455;43.430;23.136;2023-03-21T06:07:53;97992.94;;;12.10;67.44
46722;BME280;32455;43.430;23.136;2023-03-21T06:10:38;98014.13;;;12.30;68.89
46722;BME280;32455;43.430;23.136;2023-03-21T06:13:23;98002.13;;;12.37;67.58
46722;BME280;32455;43.430;23.136;2023-03-21T06:16:09;98012.47;;;13.26;60.48
46722;BME280;32455;43.430;23.136;2023-03-21T06:18:55;98017.75;;;13.21;62.12
46722;BME280;32455;43.430;23.136;2023-03-21T06:21:40;98017.34;;;13.41;59.81
46722;BME280;32455;43.430;23.136;2023-03-21T06:24:29;98012.22;;;13.78;59.13
46722;BME280;32455;43.430;23.136;2023-03-21T06:27:14;98012.47;;;13.93;59.29
46722;BME280;32455;43.430;23.136;2023-03-21T06:30:01;98010.13;;;14.19;57.83
46722;BME280;32455;43.430;23.136;2023-03-21T06:32:47;98008.78;;;14.21;58.25
46722;BME280;32455;43.430;23.136;2023-03-21T06:35:33;98025.00;;;14.21;56.96
46722;BME280;32455;43.430;23.136;2023-03-21T06:38:19;98027.47;;;14.23;57.14
46722;BME280;32455;43.430;23.136;2023-03-21T06:41:05;98035.53;;;14.18;57.91
46722;BME280;32455;43.430;23.136;2023-03-21T06:43:51;98024.63;;;14.13;56.57
46722;BME280;32455;43.430;23.136;2023-03-21T06:46:36;98038.72;;;14.37;57.25
46722;BME280;32455;43.430;23.136;2023-03-21T06:49:23;98039.94;;;14.46;56.59
46722;BME280;32455;43.430;23.136;2023-03-21T06:52:09;98031.41;;;14.54;56.62
46722;BME280;32455;43.430;23.136;2023-03-21T06:54:54;98032.91;;;14.45;57.05
46722;BME280;32455;43.430;23.136;2023-03-21T06:57:40;98037.56;;;14.71;56.34
46722;BME280;32455;43.430;23.136;2023-03-21T07:00:26;98031.09;;;14.72;55.69
46722;BME280;32455;43.430;23.136;2023-03-21T07:03:12;98044.13;;;15.02;54.69
46722;BME280;32455;43.430;23.136;2023-03-21T07:05:58;98027.75;;;15.14;54.75
46722;BME280;32455;43.430;23.136;2023-03-21T07:08:47;98036.34;;;15.06;55.50
46722;BME280;32455;43.430;23.136;2023-03-21T07:11:35;98039.28;;;14.77;55.98
46722;BME280;32455;43.430;23.136;2023-03-21T07:14:20;98036.97;;;15.13;55.47
46722;BME280;32455;43.430;23.136;2023-03-21T07:17:08;98049.50;;;14.97;55.68
46722;BME280;32455;43.430;23.136;2023-03-21T07:19:53;98056.09;;;15.07;55.17
46722;BME280;32455;43.430;23.136;2023-03-21T07:22:39;98056.44;;;14.88;54.20
46722;BME280;32455;43.430;23.136;2023-03-21T07:25:26;98051.13;;;14.98;54.74
46722;BME280;32455;43.430;23.136;2023-03-21T07:28:11;98051.31;;;15.14;54.09
46722;BME280;32455;43.430;23.136;2023-03-21T07:30:59;98054.97;;;15.02;54.47
46722;BME280;32455;43.430;23.136;2023-03-21T07:33:45;98043.28;;;14.97;53.75
46722;BME280;32455;43.430;23.136;2023-03-21T07:36:31;98057.56;;;15.19;54.16
46722;BME280;32455;43.430;23.136;2023-03-21T07:39:15;98043.69;;;15.11;54.49
46722;BME280;32455;43.430;23.136;2023-03-21T07:42:01;98010.19;;;14.90;54.29
46722;BME280;32455;43.430;23.136;2023-03-21T07:44:46;98045.94;;;15.19;54.94
46722;BME280;32455;43.430;23.136;2023-03-21T07:47:32;98057.03;;;15.17;54.04
46722;BME280;32455;43.430;23.136;2023-03-21T07:50:18;98055.28;;;15.06;54.11
46722;BME280;32455;43.430;23.136;2023-03-21T07:53:03;98046.50;;;15.21;53.89
46722;BME280;32455;43.430;23.136;2023-03-21T07:55:51;98046.78;;;15.24;53.86
46722;BME280;32455;43.430;23.136;2023-03-21T07:58:39;98032.25;;;15.03;53.86
46722;BME280;32455;43.430;23.136;2023-03-21T08:01:27;98037.91;;;15.02;54.33
46722;BME280;32455;43.430;23.136;2023-03-21T08:04:13;98039.66;;;15.13;53.88
46722;BME280;32455;43.430;23.136;2023-03-21T08:06:58;98034.81;;;15.42;53.82
46722;BME280;32455;43.430;23.136;2023-03-21T08:09:44;98037.09;;;15.28;54.00
46722;BME280;32455;43.430;23.136;2023-03-21T08:12:29;98045.47;;;15.27;54.80
46722;BME280;32455;43.430;23.136;2023-03-21T08:15:14;98033.84;;;15.26;54.89
46722;BME280;32455;43.430;23.136;2023-03-21T08:18:00;98051.44;;;15.88;53.54
46722;BME280;32455;43.430;23.136;2023-03-21T08:20:45;98051.41;;;15.83;52.75
46722;BME280;32455;43.430;23.136;2023-03-21T08:23:34;98031.28;;;15.42;54.38
46722;BME280;32455;43.430;23.136;2023-03-21T08:26:21;98032.22;;;15.25;54.07
46722;BME280;32455;43.430;23.136;2023-03-21T08:29:11;98041.34;;;15.78;52.99
46722;BME280;32455;43.430;23.136;2023-03-21T08:31:57;98046.28;;;15.55;54.03
46722;BME280;32455;43.430;23.136;2023-03-21T08:34:42;98061.84;;;16.01;53.56
46722;BME280;32455;43.430;23.136;2023-03-21T08:37:28;98055.59;;;16.01;52.93
46722;BME280;32455;43.430;23.136;2023-03-21T08:40:15;98056.25;;;16.18;52.17
46722;BME280;32455;43.430;23.136;2023-03-21T08:43:01;98048.09;;;16.13;52.43
46722;BME280;32455;43.430;23.136;2023-03-21T08:45:48;98051.88;;;16.12;52.20
46722;BME280;32455;43.430;23.136;2023-03-21T08:48:34;98022.50;;;15.94;51.40
46722;BME280;32455;43.430;23.136;2023-03-21T08:51:22;98039.72;;;16.15;50.56
46722;BME280;32455;43.430;23.136;2023-03-21T08:54:19;98043.47;;;16.14;51.11
46722;BME280;32455;43.430;23.136;2023-03-21T08:57:04;98053.22;;;16.10;50.71
46722;BME280;32455;43.430;23.136;2023-03-21T08:59:50;98044.28;;;16.14;50.44
46722;BME280;32455;43.430;23.136;2023-03-21T09:02:35;98044.75;;;16.01;51.43
46722;BME280;32455;43.430;23.136;2023-03-21T09:05:21;98049.56;;;15.89;52.22
46722;BME280;32455;43.430;23.136;2023-03-21T09:08:08;98038.34;;;16.12;51.98
46722;BME280;32455;43.430;23.136;2023-03-21T09:10:54;98041.72;;;16.40;49.93
46722;BME280;32455;43.430;23.136;2023-03-21T09:13:40;98042.66;;;16.61;49.22
46722;BME280;32455;43.430;23.136;2023-03-21T09:16:25;98030.66;;;16.46;51.00
46722;BME280;32455;43.430;23.136;2023-03-21T09:19:10;98039.69;;;16.62;52.36
46722;BME280;32455;43.430;23.136;2023-03-21T09:21:56;98048.38;;;16.69;50.02
46722;BME280;32455;43.430;23.136;2023-03-21T09:24:41;98031.09;;;16.81;49.59
46722;BME280;32455;43.430;23.136;2023-03-21T09:27:26;98029.06;;;16.03;52.58
46722;BME280;32455;43.430;23.136;2023-03-21T09:30:13;98029.34;;;16.59;50.67
46722;BME280;32455;43.430;23.136;2023-03-21T09:33:02;98031.09;;;16.81;51.46
46722;BME280;32455;43.430;23.136;2023-03-21T09:35:50;98035.72;;;16.80;50.24
46722;BME280;32455;43.430;23.136;2023-03-21T09:38:36;98048.09;;;16.13;50.82
46722;BME280;32455;43.430;23.136;2023-03-21T09:41:40;98029.53;;;15.90;51.82
46722;BME280;32455;43.430;23.136;2023-03-21T09:47:52;98030.69;;;16.04;51.49
46722;BME280;32455;43.430;23.136;2023-03-21T09:50:38;98023.66;;;16.08;51.19
46722;BME280;32455;43.430;23.136;2023-03-21T09:53:29;98009.81;;;16.05;50.79
46722;BME280;32455;43.430;23.136;2023-03-21T09:56:16;98015.03;;;15.74;51.42
46722;BME280;32455;43.430;23.136;2023-03-21T09:59:04;98021.09;;;16.34;51.35
46722;BME280;32455;43.430;23.136;2023-03-21T10:01:52;98031.81;;;16.13;51.01
46722;BME280;32455;43.430;23.136;2023-03-21T10:04:39;98023.97;;;16.12;50.82
46722;BME280;32455;43.430;23.136;2023-03-21T10:07:24;98013.06;;;15.64;52.62
46722;BME280;32455;43.430;23.136;2023-03-21T10:10:22;97997.38;;;15.66;52.35
46722;BME280;32455;43.430;23.136;2023-03-21T10:13:20;98013.00;;;16.44;51.39
46722;BME280;32455;43.430;23.136;2023-03-21T10:16:16;98016.16;;;16.73;50.07
46722;BME280;32455;43.430;23.136;2023-03-21T10:19:11;97995.59;;;16.97;49.81
46722;BME280;32455;43.430;23.136;2023-03-21T10:21:56;98014.53;;;16.82;49.65
46722;BME280;32455;43.430;23.136;2023-03-21T10:24:40;98004.03;;;17.16;49.97
46722;BME280;32455;43.430;23.136;2023-03-21T10:27:25;97995.91;;;17.67;48.66
46722;BME280;32455;43.430;23.136;2023-03-21T10:30:20;97996.50;;;17.74;48.25
46722;BME280;32455;43.430;23.136;2023-03-21T10:33:12;97985.59;;;17.85;47.59
46722;BME280;32455;43.430;23.136;2023-03-21T10:36:13;97983.41;;;17.66;46.91
46722;BME280;32455;43.430;23.136;2023-03-21T10:39:02;97983.94;;;17.68;49.03
46722;BME280;32455;43.430;23.136;2023-03-21T10:41:48;97984.47;;;16.94;50.57
46722;BME280;32455;43.430;23.136;2023-03-21T10:44:34;97979.03;;;16.84;49.78
46722;BME280;32455;43.430;23.136;2023-03-21T10:47:40;97977.41;;;17.03;50.21
46722;BME280;32455;43.430;23.136;2023-03-21T10:50:28;97959.81;;;17.31;48.06
46722;BME280;32455;43.430;23.136;2023-03-21T10:53:19;97961.41;;;17.73;48.21
46722;BME280;32455;43.430;23.136;2023-03-21T10:56:08;97952.97;;;16.93;47.60
46722;BME280;32455;43.430;23.136;2023-03-21T10:58:57;97964.13;;;17.32;48.74
46722;BME280;32455;43.430;23.136;2023-03-21T11:01:47;97954.91;;;17.74;46.53
46722;BME280;32455;43.430;23.136;2023-03-21T11:04:32;97946.16;;;17.92;48.52
46722;BME280;32455;43.430;23.136;2023-03-21T11:07:16;97951.63;;;17.62;47.11
46722;BME280;32455;43.430;23.136;2023-03-21T11:10:32;97950.28;;;17.80;46.40
46722;BME280;32455;43.430;23.136;2023-03-21T11:13:37;97947.00;;;17.72;47.38
46722;BME280;32455;43.430;23.136;2023-03-21T11:16:29;97938.81;;;17.93;47.31
46722;BME280;32455;43.430;23.136;2023-03-21T11:19:24;97927.59;;;18.25;46.21
46722;BME280;32455;43.430;23.136;2023-03-21T11:22:11;97947.84;;;17.78;46.22
46722;BME280;32455;43.430;23.136;2023-03-21T11:24:59;97939.44;;;17.39;47.17
46722;BME280;32455;43.430;23.136;2023-03-21T11:27:52;97940.22;;;17.80;46.88
46722;BME280;32455;43.430;23.136;2023-03-21T11:30:53;97943.19;;;17.73;46.51
46722;BME280;32455;43.430;23.136;2023-03-21T11:33:47;97935.56;;;17.86;45.65
46722;BME280;32455;43.430;23.136;2023-03-21T11:36:37;97934.19;;;17.98;45.11
46722;BME280;32455;43.430;23.136;2023-03-21T11:39:36;97934.19;;;18.04;47.29
46722;BME280;32455;43.430;23.136;2023-03-21T11:42:31;97922.41;;;18.23;46.80
46722;BME280;32455;43.430;23.136;2023-03-21T11:45:25;97919.72;;;18.18;45.43
46722;BME280;32455;43.430;23.136;2023-03-21T11:48:12;97908.94;;;17.88;47.17
46722;BME280;32455;43.430;23.136;2023-03-21T11:51:05;97918.72;;;17.89;45.46
46722;BME280;32455;43.430;23.136;2023-03-21T12:00:21;97910.09;;;18.36;45.14
46722;BME280;32455;43.430;23.136;2023-03-21T12:03:31;97913.88;;;18.45;44.05
46722;BME280;32455;43.430;23.136;2023-03-21T12:06:36;97905.72;;;18.50;45.71
46722;BME280;32455;43.430;23.136;2023-03-21T12:09:39;97897.97;;;18.73;44.93
46722;BME280;32455;43.430;23.136;2023-03-21T12:18:05;97898.63;;;18.49;44.46
46722;BME280;32455;43.430;23.136;2023-03-21T12:21:04;97893.81;;;18.31;44.95
46722;BME280;32455;43.430;23.136;2023-03-21T12:27:12;97884.06;;;18.20;44.22
46722;BME280;32455;43.430;23.136;2023-03-21T12:30:09;97879.25;;;18.01;44.46
46722;BME280;32455;43.430;23.136;2023-03-21T12:36:28;97876.97;;;18.24;43.38
46722;BME280;32455;43.430;23.136;2023-03-21T12:39:35;97870.19;;;18.26;43.20
46722;BME280;32455;43.430;23.136;2023-03-21T12:45:31;97864.44;;;18.28;41.55
46722;BME280;32455;43.430;23.136;2023-03-21T12:48:42;97870.47;;;18.25;42.88
46722;BME280;32455;43.430;23.136;2023-03-21T12:51:33;97866.91;;;18.30;42.66
46722;BME280;32455;43.430;23.136;2023-03-21T12:54:27;97865.91;;;18.10;43.63
46722;BME280;32455;43.430;23.136;2023-03-21T12:57:18;97865.16;;;17.94;44.07
46722;BME280;32455;43.430;23.136;2023-03-21T13:00:46;97851.34;;;17.81;44.77
46722;BME280;32455;43.430;23.136;2023-03-21T13:03:41;97848.63;;;17.75;46.07
46722;BME280;32455;43.430;23.136;2023-03-21T13:06:29;97847.81;;;17.70;45.95
46722;BME280;32455;43.430;23.136;2023-03-21T13:09:37;97824.19;;;17.75;45.84
46722;BME280;32455;43.430;23.136;2023-03-21T13:12:31;97835.91;;;17.61;46.23
46722;BME280;32455;43.430;23.136;2023-03-21T13:21:51;97830.72;;;17.59;47.26
46722;BME280;32455;43.430;23.136;2023-03-21T13:24:44;97825.03;;;17.50;47.19
46722;BME280;32455;43.430;23.136;2023-03-21T13:27:34;97831.28;;;17.51;46.92
46722;BME280;32455;43.430;23.136;2023-03-21T13:30:23;97834.25;;;17.60;46.78
46722;BME280;32455;43.430;23.136;2023-03-21T13:33:15;97831.53;;;17.60;46.83
46722;BME280;32455;43.430;23.136;2023-03-21T13:36:07;97829.66;;;17.55;47.39
46722;BME280;32455;43.430;23.136;2023-03-21T13:39:01;97832.59;;;17.64;48.19
46722;BME280;32455;43.430;23.136;2023-03-21T13:41:49;97829.69;;;17.45;47.64
46722;BME280;32455;43.430;23.136;2023-03-21T13:44:49;97825.03;;;17.56;47.68
46722;BME280;32455;43.430;23.136;2023-03-21T13:47:49;97823.41;;;17.49;48.28
46722;BME280;32455;43.430;23.136;2023-03-21T13:50:52;97819.66;;;17.35;48.65
46722;BME280;32455;43.430;23.136;2023-03-21T13:56:47;97816.97;;;17.20;48.73
46722;BME280;32455;43.430;23.136;2023-03-21T13:59:39;97818.31;;;17.27;48.82
46722;BME280;32455;43.430;23.136;2023-03-21T14:02:55;97815.34;;;17.19;48.93
46722;BME280;32455;43.430;23.136;2023-03-21T14:05:41;97801.22;;;17.12;49.38
46722;BME280;32455;43.430;23.136;2023-03-21T14:08:34;97809.63;;;17.31;49.19
46722;BME280;32455;43.430;23.136;2023-03-21T14:11:21;97817.81;;;16.90;49.59
46722;BME280;32455;43.430;23.136;2023-03-21T14:14:08;97801.25;;;17.01;49.48
46722;BME280;32455;43.430;23.136;2023-03-21T14:16:54;97804.50;;;17.03;50.14
46722;BME280;32455;43.430;23.136;2023-03-21T14:19:39;97811.56;;;16.89;50.84
46722;BME280;32455;43.430;23.136;2023-03-21T14:22:24;97810.22;;;16.97;50.85
46722;BME280;32455;43.430;23.136;2023-03-21T14:25:16;97806.16;;;16.84;51.16
46722;BME280;32455;43.430;23.136;2023-03-21T14:28:05;97798.28;;;16.77;51.60
46722;BME280;32455;43.430;23.136;2023-03-21T14:30:57;97806.66;;;16.71;50.98
46722;BME280;32455;43.430;23.136;2023-03-21T14:33:50;97801.28;;;16.76;50.74
46722;BME280;32455;43.430;23.136;2023-03-21T14:36:38;97808.00;;;16.58;52.03
46722;BME280;32455;43.430;23.136;2023-03-21T14:39:28;97796.63;;;16.46;52.28
46722;BME280;32455;43.430;23.136;2023-03-21T14:42:14;97798.25;;;16.67;51.46
46722;BME280;32455;43.430;23.136;2023-03-21T14:44:59;97793.63;;;16.63;52.00
46722;BME280;32455;43.430;23.136;2023-03-21T14:48:00;97790.66;;;16.54;52.23
46722;BME280;32455;43.430;23.136;2023-03-21T14:50:56;97789.81;;;16.38;52.77
46722;BME280;32455;43.430;23.136;2023-03-21T14:53:42;97788.16;;;16.22;53.57
46722;BME280;32455;43.430;23.136;2023-03-21T14:56:29;97797.38;;;16.26;53.57
46722;BME280;32455;43.430;23.136;2023-03-21T14:59:18;97802.28;;;16.34;52.80
46722;BME280;32455;43.430;23.136;2023-03-21T15:05:32;97796.56;;;16.25;53.90
46722;BME280;32455;43.430;23.136;2023-03-21T15:08:23;97804.72;;;16.31;53.39
46722;BME280;32455;43.430;23.136;2023-03-21T15:11:11;97803.91;;;16.30;53.65
46722;BME280;32455;43.430;23.136;2023-03-21T15:14:00;97787.59;;;16.05;54.37
46722;BME280;32455;43.430;23.136;2023-03-21T15:16:47;97795.47;;;16.06;54.30
46722;BME280;32455;43.430;23.136;2023-03-21T15:19:34;97800.31;;;15.94;55.29
46722;BME280;32455;43.430;23.136;2023-03-21T15:22:26;97803.03;;;15.99;55.48
46722;BME280;32455;43.430;23.136;2023-03-21T15:25:18;97798.41;;;16.05;55.13
46722;BME280;32455;43.430;23.136;2023-03-21T15:28:06;97802.50;;;16.07;55.27
46722;BME280;32455;43.430;23.136;2023-03-21T15:30:52;97788.91;;;15.97;55.50
46722;BME280;32455;43.430;23.136;2023-03-21T15:33:38;97795.97;;;15.98;55.71
46722;BME280;32455;43.430;23.136;2023-03-21T15:36:28;97793.22;;;15.83;56.56
46722;BME280;32455;43.430;23.136;2023-03-21T15:39:16;97803.81;;;15.94;56.66
46722;BME280;32455;43.430;23.136;2023-03-21T15:42:28;97800.28;;;15.89;56.99
46722;BME280;32455;43.430;23.136;2023-03-21T15:45:25;97799.09;;;15.64;58.31
46722;BME280;32455;43.430;23.136;2023-03-21T15:48:12;97796.59;;;15.58;58.78
46722;BME280;32455;43.430;23.136;2023-03-21T15:50:59;97807.72;;;15.61;58.93
46722;BME280;32455;43.430;23.136;2023-03-21T15:53:45;97809.56;;;15.50;59.39
46722;BME280;32455;43.430;23.136;2023-03-21T15:56:34;97805.53;;;15.58;58.97
46722;BME280;32455;43.430;23.136;2023-03-21T15:59:23;97810.69;;;15.55;59.20
46722;BME280;32455;43.430;23.136;2023-03-21T16:02:17;97804.09;;;15.40;59.67